Time;durP1;ratioP1;P1;durP2;ratioP2;P2;SDS_P1;SDS_P2;PMS_P1;PMS_P2;Temp;Humidity;BMP_temperature;BMP_pressure;BME280_temperature;BME280_humidity;BME280_pressure;Samples;Min_cycle;Max_cycle;Signal;HPM_P1;HPM_P2
2021/05/15 00:01:35;;;;;;;;;;;10.10;99.90;;;;;;5057126;28;19920;-81
2021/05/15 00:04:02;;;;;;;;;;;10.10;99.90;;;;;;5057268;28;19946;-81
2021/05/15 00:06:29;;;;;;;;;;;10.10;99.90;;;;;;5057268;28;19925;-81
2021/05/15 00:08:56;;;;;;;;;;;10.20;99.90;;;;;;5057176;28;19921;-81
2021/05/15 00:11:22;;;;;;;;;;;10.20;99.90;;;;;;5057136;28;19921;-81
2021/05/15 00:13:48;;;;;;;;;;;10.20;99.90;;;;;;5057185;28;19932;-82
2021/05/15 00:16:15;;;;;;;;;;;10.20;99.90;;;;;;5048837;28;19920;-81
2021/05/15 00:18:41;;;;;;;;;;;10.20;99.90;;;;;;5057032;28;19921;-81
2021/05/15 00:21:07;;;;;;;;;;;10.20;99.90;;;;;;5056993;28;19921;-81
2021/05/15 00:23:35;;;;;;;;;;;10.20;99.90;;;;;;5056895;28;19920;-81
2021/05/15 00:26:01;;;;;;;;;;;10.20;99.90;;;;;;5057003;28;19924;-81
2021/05/15 00:28:27;;;;;;;;;;;10.20;99.90;;;;;;5055740;28;19931;-81
2021/05/15 00:30:54;;;;;;;;;;;10.20;99.90;;;;;;5056729;28;19981;-81
2021/05/15 00:33:20;;;;;;;;;;;10.20;99.90;;;;;;5056792;28;19938;-81
2021/05/15 00:35:46;;;;;;;;;;;10.20;99.90;;;;;;5056740;28;19921;-81
2021/05/15 00:38:13;;;;;;;;;;;10.20;99.90;;;;;;5056712;28;19946;-81
2021/05/15 00:40:40;;;;;;;;;;;10.20;99.90;;;;;;5056009;28;19920;-81
2021/05/15 00:43:08;;;;;;;;;;;10.20;99.90;;;;;;5056500;28;20023;-81
2021/05/15 00:45:34;;;;;;;;;;;10.20;99.90;;;;;;5056512;28;20269;-81
2021/05/15 00:48:00;;;;;;;;;;;10.20;99.90;;;;;;5056765;28;20019;-81
2021/05/15 00:50:28;;;;;;;;;;;10.20;99.90;;;;;;5056273;28;20011;-81
2021/05/15 00:52:55;;;;;;;;;;;10.20;99.90;;;;;;5056331;28;19925;-81
2021/05/15 00:55:21;;;;;;;;;;;10.20;99.90;;;;;;5056435;28;20398;-81
2021/05/15 00:57:48;;;;;;;;;;;10.20;99.90;;;;;;5056338;28;20414;-81
2021/05/15 01:00:15;;;;;;;;;;;10.20;99.90;;;;;;5047947;28;19927;-81
2021/05/15 01:02:41;;;;;;;;;;;10.20;99.90;;;;;;5056190;28;19920;-80
2021/05/15 01:05:08;;;;;;;;;;;10.20;99.90;;;;;;5056178;28;19925;-81
2021/05/15 01:07:35;;;;;;;;;;;10.20;99.90;;;;;;5056155;28;19921;-80
2021/05/15 01:10:01;;;;;;;;;;;10.20;99.90;;;;;;5055935;28;19924;-81
2021/05/15 01:12:28;;;;;;;;;;;10.20;99.90;;;;;;5056024;28;19921;-81
2021/05/15 01:14:55;;;;;;;;;;;10.20;99.90;;;;;;5055892;28;19921;-81
2021/05/15 01:17:21;;;;;;;;;;;10.20;99.90;;;;;;5055993;28;19931;-80
2021/05/15 01:19:48;;;;;;;;;;;10.20;99.90;;;;;;5056083;28;19925;-81
2021/05/15 01:22:15;;;;;;;;;;;10.20;99.90;;;;;;5056066;28;19920;-83
2021/05/15 01:24:42;;;;;;;;;;;10.20;99.90;;;;;;5055843;28;19921;-81
2021/05/15 01:27:09;;;;;;;;;;;10.20;99.90;;;;;;5055840;28;20341;-81
2021/05/15 01:29:35;;;;;;;;;;;10.20;99.90;;;;;;5056184;28;20355;-80
2021/05/15 01:32:01;;;;;;;;;;;10.20;99.90;;;;;;5055897;28;19929;-81
2021/05/15 01:34:28;;;;;;;;;;;10.20;99.90;;;;;;5055712;28;20039;-81
2021/05/15 01:36:54;;;;;;;;;;;10.20;99.90;;;;;;5055504;28;19921;-84
2021/05/15 01:39:21;;;;;;;;;;;10.20;99.90;;;;;;5055582;28;19920;-83
2021/05/15 01:41:47;;;;;;;;;;;10.20;99.90;;;;;;5055575;28;19920;-81
2021/05/15 01:44:15;;;;;;;;;;;10.20;99.90;;;;;;5055482;28;19921;-82
2021/05/15 01:46:42;;;;;;;;;;;10.20;99.90;;;;;;5055287;28;19921;-81
2021/05/15 01:49:08;;;;;;;;;;;10.20;99.90;;;;;;5055288;28;19925;-82
2021/05/15 01:51:34;;;;;;;;;;;10.10;99.90;;;;;;5055279;28;19973;-81
2021/05/15 01:54:01;;;;;;;;;;;10.20;99.90;;;;;;5055073;28;20413;-82
2021/05/15 01:56:28;;;;;;;;;;;10.20;99.90;;;;;;5055111;28;20355;-81
2021/05/15 01:58:55;;;;;;;;;;;10.20;99.90;;;;;;5055257;28;19928;-80
2021/05/15 02:01:21;;;;;;;;;;;10.20;99.90;;;;;;5055394;28;19920;-80
2021/05/15 02:03:48;;;;;;;;;;;10.20;99.90;;;;;;5055122;28;19993;-83
2021/05/15 02:06:14;;;;;;;;;;;10.10;99.90;;;;;;5055173;28;19921;-82
2021/05/15 02:08:42;;;;;;;;;;;10.10;99.90;;;;;;5055085;28;19920;-83
2021/05/15 02:11:08;;;;;;;;;;;10.10;99.90;;;;;;5055065;28;19925;-85
2021/05/15 02:13:36;;;;;;;;;;;10.10;99.90;;;;;;5054994;28;20266;-82
2021/05/15 02:16:02;;;;;;;;;;;10.10;99.90;;;;;;5055024;28;20330;-83
2021/05/15 02:18:28;;;;;;;;;;;10.10;99.90;;;;;;5055148;28;19932;-83
2021/05/15 02:20:55;;;;;;;;;;;10.10;99.90;;;;;;5055078;28;19921;-84
2021/05/15 02:23:21;;;;;;;;;;;10.10;99.90;;;;;;5055038;28;19921;-82
2021/05/15 02:25:47;;;;;;;;;;;10.10;99.90;;;;;;5054637;28;19921;-84
2021/05/15 02:28:14;;;;;;;;;;;10.10;99.90;;;;;;5054772;28;19930;-84
2021/05/15 02:30:41;;;;;;;;;;;10.10;99.90;;;;;;5055145;28;19938;-85
2021/05/15 02:33:07;;;;;;;;;;;10.10;99.90;;;;;;5054912;28;20352;-84
2021/05/15 02:35:34;;;;;;;;;;;10.10;99.90;;;;;;5054809;28;19920;-84
2021/05/15 02:38:00;;;;;;;;;;;10.10;99.90;;;;;;5054979;28;19931;-83
2021/05/15 02:40:26;;;;;;;;;;;10.10;99.90;;;;;;5054998;28;19930;-85
2021/05/15 02:42:53;;;;;;;;;;;10.10;99.90;;;;;;5054963;28;19920;-84
2021/05/15 02:45:19;;;;;;;;;;;10.10;99.90;;;;;;5054566;28;20348;-83
2021/05/15 02:47:47;;;;;;;;;;;10.10;99.90;;;;;;5054942;28;19927;-83
2021/05/15 02:50:13;;;;;;;;;;;10.10;99.90;;;;;;5054774;28;19927;-84
2021/05/15 02:52:40;;;;;;;;;;;10.00;99.90;;;;;;5054681;28;19920;-84
2021/05/15 02:55:07;;;;;;;;;;;10.00;99.90;;;;;;5054529;28;19921;-83
2021/05/15 02:57:33;;;;;;;;;;;10.00;99.90;;;;;;5054556;28;19986;-84
2021/05/15 03:00:00;;;;;;;;;;;10.00;99.90;;;;;;5054489;28;19932;-82
2021/05/15 03:02:26;;;;;;;;;;;10.00;99.90;;;;;;5054592;28;20412;-84
2021/05/15 03:04:53;;;;;;;;;;;10.00;99.90;;;;;;5056109;28;20414;-84
2021/05/15 03:07:20;;;;;;;;;;;10.00;99.90;;;;;;5058346;28;19920;-83
2021/05/15 03:09:46;;;;;;;;;;;10.00;99.90;;;;;;5058247;28;19920;-82
2021/05/15 03:12:12;;;;;;;;;;;10.00;99.90;;;;;;5058329;28;19920;-83
2021/05/15 03:14:39;;;;;;;;;;;10.00;99.90;;;;;;5058245;28;19928;-83
2021/05/15 03:17:05;;;;;;;;;;;10.00;99.90;;;;;;5058376;28;19920;-84
2021/05/15 03:19:31;;;;;;;;;;;10.00;99.90;;;;;;5058084;28;19920;-84
2021/05/15 03:21:59;;;;;;;;;;;10.00;99.90;;;;;;5058216;28;19924;-82
2021/05/15 03:24:25;;;;;;;;;;;10.00;99.90;;;;;;5058161;28;19931;-80
2021/05/15 03:26:51;;;;;;;;;;;10.00;99.90;;;;;;5058422;28;19921;-80
2021/05/15 03:29:18;;;;;;;;;;;10.00;99.90;;;;;;5057889;28;19925;-81
2021/05/15 03:31:44;;;;;;;;;;;9.90;99.90;;;;;;5057937;28;19946;-80
2021/05/15 03:34:10;;;;;;;;;;;9.90;99.90;;;;;;5057943;28;19920;-79
2021/05/15 03:36:37;;;;;;;;;;;9.90;99.90;;;;;;5057901;28;19927;-80
2021/05/15 03:39:04;;;;;;;;;;;9.90;99.90;;;;;;5057818;28;19920;-81
2021/05/15 03:41:30;;;;;;;;;;;9.80;99.90;;;;;;5058119;28;20007;-81
2021/05/15 03:43:57;;;;;;;;;;;9.80;99.90;;;;;;5058021;28;19927;-80
2021/05/15 03:46:23;;;;;;;;;;;9.80;99.90;;;;;;5057616;28;19943;-81
2021/05/15 03:48:49;;;;;;;;;;;9.80;99.90;;;;;;5057817;28;19931;-81
2021/05/15 03:51:16;;;;;;;;;;;9.80;99.90;;;;;;5057685;28;19928;-81
2021/05/15 03:53:42;;;;;;;;;;;9.80;99.90;;;;;;5057805;28;19920;-81
2021/05/15 03:56:10;;;;;;;;;;;9.80;99.90;;;;;;5057779;28;19931;-81
2021/05/15 03:58:36;;;;;;;;;;;9.80;99.90;;;;;;5057749;28;20011;-80
2021/05/15 04:01:03;;;;;;;;;;;9.80;99.90;;;;;;5057574;28;19927;-80
2021/05/15 04:03:29;;;;;;;;;;;9.80;99.90;;;;;;5057545;28;19920;-80
2021/05/15 04:05:55;;;;;;;;;;;9.80;99.90;;;;;;5057652;28;19931;-81
2021/05/15 04:08:22;;;;;;;;;;;9.80;99.90;;;;;;5057341;28;19921;-80
2021/05/15 04:10:48;;;;;;;;;;;9.70;99.90;;;;;;5057213;28;19924;-80
2021/05/15 04:13:23;;;;;;;;;;;9.70;99.90;;;;;;5057247;28;19938;-80
2021/05/15 04:15:54;;;;;;;;;;;9.60;99.90;;;;;;5056124;28;20025;-81
2021/05/15 04:18:20;;;;;;;;;;;9.60;99.90;;;;;;5049658;28;19932;-81
2021/05/15 04:20:47;;;;;;;;;;;9.60;99.90;;;;;;5056929;28;19950;-81
2021/05/15 04:23:13;;;;;;;;;;;9.50;99.90;;;;;;5056966;28;19925;-81
2021/05/15 04:25:39;;;;;;;;;;;9.50;99.90;;;;;;5057031;28;19995;-80
2021/05/15 04:28:06;;;;;;;;;;;9.50;99.90;;;;;;5056982;28;19921;-81
2021/05/15 04:30:33;;;;;;;;;;;9.40;99.90;;;;;;5056937;28;19927;-81
2021/05/15 04:33:00;;;;;;;;;;;9.40;99.90;;;;;;5057045;28;20027;-81
2021/05/15 04:35:27;;;;;;;;;;;9.30;99.90;;;;;;5056697;28;19920;-82
2021/05/15 04:37:53;;;;;;;;;;;9.30;99.90;;;;;;5056992;28;19920;-81
2021/05/15 04:40:19;;;;;;;;;;;9.30;99.90;;;;;;5056617;28;20363;-80
2021/05/15 04:42:46;;;;;;;;;;;9.20;99.90;;;;;;5056586;28;20341;-81
2021/05/15 04:45:13;;;;;;;;;;;9.20;99.90;;;;;;5056478;28;20398;-80
2021/05/15 04:47:40;;;;;;;;;;;9.20;99.90;;;;;;5056689;28;19921;-81
2021/05/15 04:50:07;;;;;;;;;;;9.20;99.90;;;;;;5056345;28;19928;-81
2021/05/15 04:52:34;;;;;;;;;;;9.20;99.90;;;;;;5056691;28;19921;-81
2021/05/15 04:55:00;;;;;;;;;;;9.20;99.90;;;;;;5056367;28;19985;-81
2021/05/15 04:57:26;;;;;;;;;;;9.20;99.90;;;;;;5056569;28;19970;-82
2021/05/15 04:59:52;;;;;;;;;;;9.20;99.90;;;;;;5056442;28;19921;-81
2021/05/15 05:02:19;;;;;;;;;;;9.30;99.90;;;;;;5056506;28;19931;-81
2021/05/15 05:04:46;;;;;;;;;;;9.30;99.90;;;;;;5056227;28;19981;-80
2021/05/15 05:07:12;;;;;;;;;;;9.30;99.90;;;;;;5056417;28;19920;-81
2021/05/15 05:09:39;;;;;;;;;;;9.20;99.90;;;;;;5056307;28;19935;-81
2021/05/15 05:12:05;;;;;;;;;;;9.20;99.90;;;;;;5056281;28;19921;-81
2021/05/15 05:14:32;;;;;;;;;;;9.30;99.90;;;;;;5056020;28;19921;-81
2021/05/15 05:16:58;;;;;;;;;;;9.30;99.90;;;;;;5055907;28;19925;-81
2021/05/15 05:19:25;;;;;;;;;;;9.30;99.90;;;;;;5055937;28;19920;-81
2021/05/15 05:21:52;;;;;;;;;;;9.30;99.90;;;;;;5055810;28;20011;-81
2021/05/15 05:24:18;;;;;;;;;;;9.30;99.90;;;;;;5056012;28;19925;-81
2021/05/15 05:26:45;;;;;;;;;;;9.30;99.90;;;;;;5055606;28;19921;-80
2021/05/15 05:29:11;;;;;;;;;;;9.30;99.90;;;;;;5055591;28;19930;-81
2021/05/15 05:31:38;;;;;;;;;;;9.30;99.90;;;;;;5055791;28;19939;-81
2021/05/15 05:34:04;;;;;;;;;;;9.30;99.90;;;;;;5055538;28;19926;-81
2021/05/15 05:36:30;;;;;;;;;;;9.30;99.90;;;;;;5055878;28;19925;-81
2021/05/15 05:38:58;;;;;;;;;;;9.30;99.90;;;;;;5055565;28;19921;-80
2021/05/15 05:41:25;;;;;;;;;;;9.30;99.90;;;;;;5055703;28;19920;-81
2021/05/15 05:43:51;;;;;;;;;;;9.40;99.90;;;;;;5055583;28;19931;-80
2021/05/15 05:46:17;;;;;;;;;;;9.40;99.90;;;;;;5055426;28;19928;-81
2021/05/15 05:48:44;;;;;;;;;;;9.40;99.90;;;;;;5055539;28;19929;-80
2021/05/15 05:51:10;;;;;;;;;;;9.40;99.90;;;;;;5055663;28;19935;-80
2021/05/15 05:53:36;;;;;;;;;;;9.40;99.90;;;;;;5055641;28;19920;-80
2021/05/15 05:56:04;;;;;;;;;;;9.40;99.90;;;;;;5055552;28;19921;-80
2021/05/15 05:58:30;;;;;;;;;;;9.40;99.90;;;;;;5055263;28;19954;-80
2021/05/15 06:00:56;;;;;;;;;;;9.50;99.90;;;;;;5055229;28;20019;-80
2021/05/15 06:03:23;;;;;;;;;;;9.50;99.90;;;;;;5055086;28;19920;-80
2021/05/15 06:05:49;;;;;;;;;;;9.50;99.90;;;;;;5055077;28;19931;-80
2021/05/15 06:08:15;;;;;;;;;;;9.40;99.90;;;;;;5047056;28;19921;-79
2021/05/15 06:10:42;;;;;;;;;;;9.50;99.90;;;;;;5054994;28;19927;-80
2021/05/15 06:13:09;;;;;;;;;;;9.50;99.90;;;;;;5055044;28;19924;-80
2021/05/15 06:15:35;;;;;;;;;;;9.40;99.90;;;;;;5055274;28;19920;-80
2021/05/15 06:18:02;;;;;;;;;;;9.40;99.90;;;;;;5054921;28;19920;-80
2021/05/15 06:20:28;;;;;;;;;;;9.40;99.90;;;;;;5054936;28;19934;-80
2021/05/15 06:22:54;;;;;;;;;;;9.50;99.90;;;;;;5055141;28;20102;-80
2021/05/15 06:25:21;;;;;;;;;;;9.50;99.90;;;;;;5054946;28;19921;-80
2021/05/15 06:27:47;;;;;;;;;;;9.40;99.90;;;;;;5054833;28;20016;-81
2021/05/15 06:30:16;;;;;;;;;;;9.40;99.90;;;;;;5054782;28;19977;-80
2021/05/15 06:32:42;;;;;;;;;;;9.50;99.90;;;;;;5054745;28;19974;-80
2021/05/15 06:35:09;;;;;;;;;;;9.40;99.90;;;;;;5054879;28;20023;-80
2021/05/15 06:37:36;;;;;;;;;;;9.50;99.90;;;;;;5054718;28;19981;-80
2021/05/15 06:40:02;;;;;;;;;;;9.50;99.90;;;;;;5057113;28;19920;-80
2021/05/15 06:42:29;;;;;;;;;;;9.50;99.90;;;;;;5058862;28;19924;-81
2021/05/15 06:44:55;;;;;;;;;;;9.50;99.90;;;;;;5058790;28;19978;-81
2021/05/15 06:47:22;;;;;;;;;;;9.50;99.90;;;;;;5058574;28;19925;-81
2021/05/15 06:49:49;;;;;;;;;;;9.60;99.90;;;;;;5058665;28;19932;-82
2021/05/15 06:52:15;;;;;;;;;;;9.60;99.90;;;;;;5058694;28;19931;-81
2021/05/15 06:54:42;;;;;;;;;;;9.60;99.90;;;;;;5058599;28;20351;-81
2021/05/15 06:57:08;;;;;;;;;;;9.70;99.90;;;;;;5059121;28;20488;-81
2021/05/15 06:59:34;;;;;;;;;;;9.70;99.90;;;;;;5058563;28;19974;-80
2021/05/15 07:02:01;;;;;;;;;;;9.70;99.90;;;;;;5058787;28;20023;-80
2021/05/15 07:04:28;;;;;;;;;;;9.70;99.90;;;;;;5058706;28;19920;-81
2021/05/15 07:06:54;;;;;;;;;;;9.70;99.90;;;;;;5058535;28;19921;-81
2021/05/15 07:09:20;;;;;;;;;;;9.70;99.90;;;;;;5058564;28;19921;-81
2021/05/15 07:11:48;;;;;;;;;;;9.80;99.90;;;;;;5058551;28;20264;-80
2021/05/15 07:14:14;;;;;;;;;;;9.80;99.90;;;;;;5058223;28;19933;-81
2021/05/15 07:16:41;;;;;;;;;;;9.80;99.90;;;;;;5058240;28;19920;-81
2021/05/15 07:19:07;;;;;;;;;;;9.90;99.90;;;;;;5058513;28;19974;-81
2021/05/15 07:21:34;;;;;;;;;;;9.90;99.90;;;;;;5058332;28;19921;-81
2021/05/15 07:24:00;;;;;;;;;;;10.00;99.90;;;;;;5058199;28;19924;-81
2021/05/15 07:26:27;;;;;;;;;;;10.00;99.90;;;;;;5058355;28;19931;-81
2021/05/15 07:28:54;;;;;;;;;;;10.10;99.90;;;;;;5057910;28;20070;-80
2021/05/15 07:31:20;;;;;;;;;;;10.10;99.90;;;;;;5058064;28;19920;-80
2021/05/15 07:33:46;;;;;;;;;;;10.20;99.90;;;;;;5058325;28;19921;-81
2021/05/15 07:36:12;;;;;;;;;;;10.20;99.90;;;;;;5058162;28;19921;-80
2021/05/15 07:38:41;;;;;;;;;;;10.30;99.90;;;;;;5058102;28;19924;-80
2021/05/15 07:41:08;;;;;;;;;;;10.30;99.90;;;;;;5057835;28;19920;-80
2021/05/15 07:43:35;;;;;;;;;;;10.40;99.90;;;;;;5057783;28;19921;-80
2021/05/15 07:46:01;;;;;;;;;;;10.40;99.90;;;;;;5057550;28;19925;-79
2021/05/15 07:48:29;;;;;;;;;;;10.50;99.90;;;;;;5057627;28;19927;-79
2021/05/15 07:50:56;;;;;;;;;;;10.50;99.90;;;;;;5057494;28;19921;-79
2021/05/15 07:53:22;;;;;;;;;;;10.50;99.90;;;;;;5057815;28;19921;-78
2021/05/15 07:55:50;;;;;;;;;;;10.50;99.90;;;;;;5057458;28;19925;-79
2021/05/15 07:58:16;;;;;;;;;;;10.50;99.90;;;;;;5057505;28;19921;-79
2021/05/15 08:00:42;;;;;;;;;;;10.50;99.90;;;;;;5057413;28;19932;-78
2021/05/15 08:03:09;;;;;;;;;;;10.50;99.90;;;;;;5057561;28;19924;-79
2021/05/15 08:05:35;;;;;;;;;;;10.40;99.90;;;;;;5057314;28;19920;-78
2021/05/15 08:08:02;;;;;;;;;;;10.40;99.90;;;;;;5057231;28;20011;-79
2021/05/15 08:10:29;;;;;;;;;;;10.40;99.90;;;;;;5057494;28;19928;-80
2021/05/15 08:12:56;;;;;;;;;;;10.40;99.90;;;;;;5057169;28;19920;-79
2021/05/15 08:15:22;;;;;;;;;;;10.50;99.90;;;;;;5057171;28;19929;-78
2021/05/15 08:17:49;;;;;;;;;;;10.50;99.90;;;;;;5057267;28;20327;-78
2021/05/15 08:20:15;;;;;;;;;;;10.60;99.90;;;;;;5057166;28;20257;-77
2021/05/15 08:22:41;;;;;;;;;;;10.60;99.90;;;;;;5057091;28;19939;-79
2021/05/15 08:25:08;;;;;;;;;;;10.60;99.90;;;;;;5057185;28;19921;-79
2021/05/15 08:27:37;;;;;;;;;;;10.70;99.90;;;;;;5057256;28;19920;-78
2021/05/15 08:30:05;;;;;;;;;;;10.70;99.90;;;;;;5057096;28;19921;-79
2021/05/15 08:32:33;;;;;;;;;;;10.80;99.90;;;;;;5057014;28;19920;-79
2021/05/15 08:34:59;;;;;;;;;;;10.80;99.90;;;;;;5057041;28;19920;-79
2021/05/15 08:37:26;;;;;;;;;;;10.80;99.90;;;;;;5056911;28;19920;-79
2021/05/15 08:39:52;;;;;;;;;;;10.80;99.90;;;;;;5056904;28;19932;-79
2021/05/15 08:42:19;;;;;;;;;;;10.80;99.90;;;;;;5056550;28;19924;-80
2021/05/15 08:44:46;;;;;;;;;;;10.80;99.90;;;;;;5056628;28;19921;-79
2021/05/15 08:47:13;;;;;;;;;;;10.80;99.90;;;;;;5056461;28;19927;-79
2021/05/15 08:49:39;;;;;;;;;;;10.90;99.90;;;;;;5056358;28;19931;-79
2021/05/15 08:52:06;;;;;;;;;;;11.00;99.90;;;;;;5056507;28;19931;-80
2021/05/15 08:54:32;;;;;;;;;;;11.10;99.90;;;;;;5056463;28;19970;-79
2021/05/15 08:56:58;;;;;;;;;;;11.20;99.90;;;;;;5056811;28;19935;-79
2021/05/15 08:59:25;;;;;;;;;;;11.30;99.90;;;;;;5056320;28;19927;-79
2021/05/15 09:01:51;;;;;;;;;;;11.50;99.90;;;;;;5055556;28;19921;-79
2021/05/15 09:04:18;;;;;;;;;;;11.60;99.90;;;;;;5056245;28;20400;-79
2021/05/15 09:06:45;;;;;;;;;;;11.70;99.90;;;;;;5056263;28;19920;-79
2021/05/15 09:09:11;;;;;;;;;;;11.80;99.90;;;;;;5056185;28;19934;-78
2021/05/15 09:11:38;;;;;;;;;;;11.90;99.90;;;;;;5056126;28;19925;-79
2021/05/15 09:14:04;;;;;;;;;;;12.00;99.90;;;;;;5056126;28;20405;-79
2021/05/15 09:16:30;;;;;;;;;;;12.10;99.90;;;;;;5055986;28;19924;-79
2021/05/15 09:19:04;;;;;;;;;;;12.20;99.90;;;;;;5055993;28;19981;-80
2021/05/15 09:21:31;;;;;;;;;;;12.30;99.90;;;;;;5056181;28;19927;-79
2021/05/15 09:23:57;;;;;;;;;;;12.20;99.90;;;;;;5055635;28;19920;-80
2021/05/15 09:26:24;;;;;;;;;;;12.10;99.90;;;;;;5056162;28;19930;-79
2021/05/15 09:28:51;;;;;;;;;;;12.00;99.90;;;;;;5055743;28;20337;-79
2021/05/15 09:31:19;;;;;;;;;;;12.00;99.90;;;;;;5055103;28;19921;-79
2021/05/15 09:33:46;;;;;;;;;;;12.00;99.90;;;;;;5055603;28;19970;-79
2021/05/15 09:36:13;;;;;;;;;;;12.10;99.90;;;;;;5055952;28;19968;-79
2021/05/15 09:38:40;;;;;;;;;;;12.10;99.90;;;;;;5055687;28;20353;-79
2021/05/15 09:41:06;;;;;;;;;;;12.20;99.90;;;;;;5055534;28;19920;-79
2021/05/15 09:43:33;;;;;;;;;;;12.20;99.90;;;;;;5055664;28;19921;-80
2021/05/15 09:45:59;;;;;;;;;;;12.20;99.90;;;;;;5055298;28;19925;-79
2021/05/15 09:48:38;;;;;;;;;;;12.30;99.90;;;;;;5055410;28;19977;-79
2021/05/15 09:51:14;;;;;;;;;;;12.30;99.90;;;;;;5055369;28;20260;-79
2021/05/15 09:53:41;;;;;;;;;;;12.40;99.90;;;;;;5055646;28;19931;-79
2021/05/15 09:56:07;;;;;;;;;;;12.40;99.90;;;;;;5055511;28;19931;-80
2021/05/15 09:58:33;;;;;;;;;;;12.40;99.90;;;;;;5055422;28;19921;-79
2021/05/15 10:01:00;;;;;;;;;;;12.50;99.90;;;;;;5055266;28;19977;-80
2021/05/15 10:03:26;;;;;;;;;;;12.50;99.90;;;;;;5055441;28;19997;-80
2021/05/15 10:05:59;;;;;;;;;;;12.50;99.90;;;;;;5055037;28;20264;-79
2021/05/15 10:08:26;;;;;;;;;;;12.50;99.90;;;;;;5055449;28;19920;-81
2021/05/15 10:10:53;;;;;;;;;;;12.40;99.90;;;;;;5055233;28;19927;-82
2021/05/15 10:13:19;;;;;;;;;;;12.40;99.90;;;;;;5055121;28;19924;-80
2021/05/15 10:15:46;;;;;;;;;;;12.40;99.90;;;;;;5055421;28;19921;-81
2021/05/15 10:18:12;;;;;;;;;;;12.40;99.90;;;;;;5055058;28;19958;-79
2021/05/15 10:20:39;;;;;;;;;;;12.40;99.90;;;;;;5055079;28;20338;-79
2021/05/15 10:23:06;;;;;;;;;;;12.30;99.90;;;;;;5054962;28;20337;-79
2021/05/15 10:25:32;;;;;;;;;;;12.30;99.90;;;;;;5053735;28;19921;-79
2021/05/15 10:28:03;;;;;;;;;;;12.20;99.90;;;;;;5055016;28;19931;-80
2021/05/15 10:30:29;;;;;;;;;;;12.20;99.90;;;;;;5054966;28;19932;-80
2021/05/15 10:32:56;;;;;;;;;;;12.10;99.90;;;;;;5055090;28;19935;-80
2021/05/15 10:35:26;;;;;;;;;;;12.10;99.90;;;;;;5054795;28;19928;-79
2021/05/15 10:38:00;;;;;;;;;;;12.20;99.90;;;;;;5054837;28;20341;-80
2021/05/15 10:40:28;;;;;;;;;;;12.20;99.90;;;;;;5054828;28;19931;-79
2021/05/15 10:42:57;;;;;;;;;;;12.20;99.90;;;;;;5055013;28;20345;-79
2021/05/15 10:45:33;;;;;;;;;;;12.20;99.90;;;;;;5054571;28;19973;-80
2021/05/15 10:48:10;;;;;;;;;;;12.20;99.90;;;;;;5054985;28;19986;-79
2021/05/15 10:50:46;;;;;;;;;;;12.10;99.90;;;;;;5054973;28;20015;-80
2021/05/15 10:53:17;;;;;;;;;;;12.10;99.90;;;;;;5054676;28;19921;-79
2021/05/15 10:55:44;;;;;;;;;;;12.00;99.90;;;;;;5054823;28;19984;-80
2021/05/15 10:58:10;;;;;;;;;;;11.90;99.90;;;;;;5054731;28;20284;-80
2021/05/15 11:00:37;;;;;;;;;;;11.80;99.90;;;;;;5054993;28;19931;-79
2021/05/15 11:03:04;;;;;;;;;;;11.70;99.90;;;;;;5054913;28;19925;-79
2021/05/15 11:05:40;;;;;;;;;;;11.60;99.90;;;;;;5054595;28;19924;-79
2021/05/15 11:08:07;;;;;;;;;;;11.60;99.90;;;;;;5054668;28;19974;-79
2021/05/15 11:10:34;;;;;;;;;;;11.70;99.90;;;;;;5054424;28;19924;-80
2021/05/15 11:13:06;;;;;;;;;;;11.70;99.90;;;;;;5054786;28;19925;-78
2021/05/15 11:15:32;;;;;;;;;;;11.80;99.90;;;;;;5054724;28;20261;-79
2021/05/15 11:18:02;;;;;;;;;;;11.90;99.90;;;;;;5054756;28;20254;-79
2021/05/15 11:20:30;;;;;;;;;;;12.00;99.90;;;;;;5054402;28;19989;-80
2021/05/15 11:22:57;;;;;;;;;;;12.10;99.90;;;;;;5054533;28;19985;-79
2021/05/15 11:25:26;;;;;;;;;;;12.20;99.90;;;;;;5055250;28;19920;-79
2021/05/15 11:27:54;;;;;;;;;;;12.30;99.90;;;;;;5058144;28;19958;-79
2021/05/15 11:30:21;;;;;;;;;;;12.40;99.90;;;;;;5057881;28;19927;-80
2021/05/15 11:32:54;;;;;;;;;;;12.50;99.90;;;;;;5057932;28;19973;-79
2021/05/15 11:35:21;;;;;;;;;;;12.60;99.90;;;;;;5057885;28;20418;-79
2021/05/15 11:37:48;;;;;;;;;;;12.60;99.90;;;;;;5057909;28;20268;-78
2021/05/15 11:40:14;;;;;;;;;;;12.60;99.90;;;;;;5057932;28;20003;-82
2021/05/15 11:42:41;;;;;;;;;;;12.60;99.90;;;;;;5057701;28;19973;-83
2021/05/15 11:45:07;;;;;;;;;;;12.50;99.90;;;;;;5057573;28;19929;-83
2021/05/15 11:47:34;;;;;;;;;;;12.50;99.90;;;;;;5057293;28;19931;-79
2021/05/15 11:50:00;;;;;;;;;;;12.40;99.90;;;;;;5057178;28;20416;-78
2021/05/15 11:52:31;;;;;;;;;;;12.40;99.90;;;;;;5057428;28;20019;-79
2021/05/15 11:54:58;;;;;;;;;;;12.30;99.90;;;;;;5057906;28;19920;-78
2021/05/15 11:57:25;;;;;;;;;;;12.40;99.90;;;;;;5057593;28;19932;-79
2021/05/15 11:59:51;;;;;;;;;;;12.30;99.90;;;;;;5057670;28;20288;-79
2021/05/15 12:02:18;;;;;;;;;;;12.30;99.90;;;;;;5057410;28;20368;-79
2021/05/15 12:04:45;;;;;;;;;;;12.40;99.90;;;;;;5057404;28;20348;-78
2021/05/15 12:07:14;;;;;;;;;;;12.50;99.90;;;;;;5057362;28;19920;-79
2021/05/15 12:09:42;;;;;;;;;;;12.50;99.90;;;;;;5057484;28;19921;-79
2021/05/15 12:12:09;;;;;;;;;;;12.60;99.90;;;;;;5057324;28;19925;-80
2021/05/15 12:14:38;;;;;;;;;;;12.70;99.90;;;;;;5057236;28;19927;-79
2021/05/15 12:17:05;;;;;;;;;;;12.70;99.90;;;;;;5057226;28;19979;-79
2021/05/15 12:19:31;;;;;;;;;;;12.80;99.90;;;;;;5057520;28;19925;-78
2021/05/15 12:21:58;;;;;;;;;;;12.80;99.90;;;;;;5057466;28;19928;-79
2021/05/15 12:24:30;;;;;;;;;;;12.80;99.90;;;;;;5057281;28;19921;-78
2021/05/15 12:27:06;;;;;;;;;;;12.80;99.90;;;;;;5057214;28;19932;-77
2021/05/15 12:29:32;;;;;;;;;;;12.90;99.90;;;;;;5057010;28;19921;-77
2021/05/15 12:31:59;;;;;;;;;;;12.90;99.90;;;;;;5057115;28;19929;-77
2021/05/15 12:34:25;;;;;;;;;;;12.90;99.90;;;;;;5057034;28;19935;-77
2021/05/15 12:36:51;;;;;;;;;;;12.80;99.90;;;;;;5055914;28;19928;-82
2021/05/15 12:39:18;;;;;;;;;;;12.70;99.90;;;;;;5056765;28;19920;-78
2021/05/15 12:41:44;;;;;;;;;;;12.70;99.90;;;;;;5056917;28;19920;-77
2021/05/15 12:44:12;;;;;;;;;;;12.70;99.90;;;;;;5056833;28;19944;-77
2021/05/15 12:46:39;;;;;;;;;;;12.70;99.90;;;;;;5056439;28;19927;-78
2021/05/15 12:49:06;;;;;;;;;;;12.70;99.90;;;;;;5056547;28;19921;-78
2021/05/15 12:51:32;;;;;;;;;;;12.60;99.90;;;;;;5057567;28;19931;-78
2021/05/15 12:53:59;;;;;;;;;;;12.60;99.90;;;;;;5051856;28;20563;-81
2021/05/15 12:56:35;;;;;;;;;;;12.70;99.90;;;;;;5043229;28;19927;-79
2021/05/15 12:59:03;;;;;;;;;;;12.70;99.90;;;;;;5056183;28;19920;-80
2021/05/15 13:01:31;;;;;;;;;;;12.80;99.90;;;;;;5056123;28;19924;-79
2021/05/15 13:03:59;;;;;;;;;;;12.80;99.90;;;;;;5056502;28;19930;-81
2021/05/15 13:06:34;;;;;;;;;;;12.80;99.90;;;;;;5056092;28;20345;-79
2021/05/15 13:09:04;;;;;;;;;;;12.70;99.90;;;;;;5055354;28;19986;-80
2021/05/15 13:11:31;;;;;;;;;;;12.60;99.90;;;;;;5055796;28;19985;-79
2021/05/15 13:14:00;;;;;;;;;;;12.50;99.90;;;;;;5055917;28;20333;-79
2021/05/15 13:16:28;;;;;;;;;;;12.40;99.90;;;;;;5055806;28;20019;-79
2021/05/15 13:19:03;;;;;;;;;;;12.30;99.90;;;;;;5055916;28;19964;-79
2021/05/15 13:21:32;;;;;;;;;;;12.20;99.90;;;;;;5055767;28;19925;-79
2021/05/15 13:24:02;;;;;;;;;;;12.00;99.90;;;;;;5055734;28;19932;-78
2021/05/15 13:26:30;;;;;;;;;;;11.90;99.90;;;;;;5036863;28;20039;-78
2021/05/15 13:28:57;;;;;;;;;;;11.90;99.90;;;;;;5036084;28;19921;-79
2021/05/15 13:31:28;;;;;;;;;;;11.80;99.90;;;;;;5035650;28;19921;-79
2021/05/15 13:33:55;;;;;;;;;;;11.80;99.90;;;;;;5035643;28;19968;-78
2021/05/15 13:36:22;;;;;;;;;;;11.80;99.90;;;;;;5035793;28;20322;-79
2021/05/15 13:38:49;;;;;;;;;;;11.80;99.90;;;;;;5035344;28;19929;-79
2021/05/15 13:41:17;;;;;;;;;;;11.80;99.90;;;;;;5035509;28;20007;-78
2021/05/15 13:43:43;;;;;;;;;;;11.80;99.90;;;;;;5035560;28;19921;-80
2021/05/15 13:46:10;;;;;;;;;;;11.80;99.90;;;;;;5035320;28;19924;-79
2021/05/15 13:48:36;;;;;;;;;;;11.80;99.90;;;;;;5035065;28;19928;-79
2021/05/15 13:51:05;;;;;;;;;;;11.80;99.90;;;;;;5035524;28;19932;-80
2021/05/15 13:53:33;;;;;;;;;;;11.80;99.90;;;;;;5031244;28;19927;-79
2021/05/15 13:56:01;;;;;;;;;;;11.90;99.90;;;;;;5034863;28;20250;-79
2021/05/15 13:58:32;;;;;;;;;;;11.90;99.90;;;;;;5035626;28;19921;-79
2021/05/15 14:00:58;;;;;;;;;;;11.90;99.90;;;;;;5034591;28;20004;-77
2021/05/15 14:03:24;;;;;;;;;;;11.90;99.90;;;;;;5035171;28;19989;-79
2021/05/15 14:05:51;;;;;;;;;;;11.90;99.90;;;;;;5035356;28;19921;-79
2021/05/15 14:08:17;;;;;;;;;;;11.80;99.90;;;;;;5035121;28;19963;-78
2021/05/15 14:10:46;;;;;;;;;;;11.80;99.90;;;;;;5035203;28;19928;-78
2021/05/15 14:13:13;;;;;;;;;;;11.80;99.90;;;;;;5035329;28;19939;-81
2021/05/15 14:15:39;;;;;;;;;;;11.80;99.90;;;;;;5035984;28;20353;-80
2021/05/15 14:18:07;;;;;;;;;;;11.80;99.90;;;;;;5035650;28;20346;-80
2021/05/15 14:20:33;;;;;;;;;;;11.90;99.90;;;;;;5035161;28;19920;-85